Time;durP1;ratioP1;P1;durP2;ratioP2;P2;SDS_P1;SDS_P2;PMS_P1;PMS_P2;Temp;Humidity;BMP_temperature;BMP_pressure;BME280_temperature;BME280_humidity;BME280_pressure;Samples;Min_cycle;Max_cycle;Signal;HPM_P1;HPM_P2
2022/12/28 00:00:07;;;;;;;14.27;4.05;;;;;;;;;;5127592;27;20059;-83
2022/12/28 00:02:34;;;;;;;10.48;4.10;;;;;;;;;;5114412;27;20842;-83
2022/12/28 00:05:02;;;;;;;11.73;3.88;;;;;;;;;;5127886;27;20067;-83
2022/12/28 00:07:29;;;;;;;10.38;3.63;;;;;;;;;;5125908;27;20044;-83
2022/12/28 00:09:56;;;;;;;14.25;4.00;;;;;;;;;;5127618;27;20048;-83
2022/12/28 00:12:24;;;;;;;11.40;4.10;;;;;;;;;;5127682;27;20676;-82
2022/12/28 00:14:52;;;;;;;9.10;4.47;;;;;;;;;;5125100;27;20050;-83
2022/12/28 00:17:19;;;;;;;10.15;4.05;;;;;;;;;;5128770;27;20083;-83
2022/12/28 00:19:47;;;;;;;15.80;3.67;;;;;;;;;;5127409;27;20044;-83
2022/12/28 00:22:14;;;;;;;9.60;3.65;;;;;;;;;;5129721;27;20056;-83
2022/12/28 00:24:41;;;;;;;7.22;3.67;;;;;;;;;;5133300;27;20105;-83
2022/12/28 00:27:08;;;;;;;11.05;3.50;;;;;;;;;;5122581;27;20079;-83
2022/12/28 00:29:35;;;;;;;9.80;3.97;;;;;;;;;;5127949;27;20097;-83
2022/12/28 00:32:03;;;;;;;9.13;3.70;;;;;;;;;;5128775;27;20151;-82
2022/12/28 00:34:30;;;;;;;8.25;3.95;;;;;;;;;;5127841;27;20114;-83
2022/12/28 00:36:57;;;;;;;12.15;3.60;;;;;;;;;;5135302;27;20757;-82
2022/12/28 00:39:38;;;;;;;10.50;3.67;;;;;;;;;;5138627;27;20043;-82
2022/12/28 00:42:08;;;;;;;9.82;3.53;;;;;;;;;;5128472;27;20078;-83
2022/12/28 00:44:35;;;;;;;9.93;3.63;;;;;;;;;;5130322;27;20829;-82
2022/12/28 00:47:02;;;;;;;7.57;3.65;;;;;;;;;;5132141;27;20056;-83
2022/12/28 00:49:30;;;;;;;9.50;4.03;;;;;;;;;;5134428;27;20044;-82
2022/12/28 00:51:57;;;;;;;12.55;3.80;;;;;;;;;;5135925;27;20055;-83
2022/12/28 00:54:25;;;;;;;10.90;3.90;;;;;;;;;;5129964;27;20043;-82
2022/12/28 00:56:55;;;;;;;9.77;3.75;;;;;;;;;;5132616;27;20047;-83
2022/12/28 00:59:25;;;;;;;9.88;3.88;;;;;;;;;;5137854;27;20047;-83
2022/12/28 01:01:55;;;;;;;9.85;3.67;;;;;;;;;;5137113;27;20513;-82
2022/12/28 01:04:25;;;;;;;12.75;3.83;;;;;;;;;;5132024;27;20143;-83
2022/12/28 01:06:52;;;;;;;10.73;3.67;;;;;;;;;;5135412;27;20048;-82
2022/12/28 01:09:24;;;;;;;9.10;3.95;;;;;;;;;;5143875;27;20079;-83
2022/12/28 01:11:54;;;;;;;11.63;4.03;;;;;;;;;;5135783;27;20137;-83
2022/12/28 01:14:21;;;;;;;9.30;3.90;;;;;;;;;;5134954;27;20059;-83
2022/12/28 01:16:50;;;;;;;9.07;3.95;;;;;;;;;;5138470;27;20043;-83
2022/12/28 01:19:20;;;;;;;14.15;3.90;;;;;;;;;;5135677;27;20127;-82
2022/12/28 01:21:48;;;;;;;10.80;4.68;;;;;;;;;;5130717;27;20175;-82
2022/12/28 01:24:18;;;;;;;11.25;4.10;;;;;;;;;;5130283;27;20048;-83
2022/12/28 01:26:45;;;;;;;13.13;3.90;;;;;;;;;;5133824;27;20048;-83
2022/12/28 01:29:12;;;;;;;9.25;3.65;;;;;;;;;;5131105;27;20052;-82
2022/12/28 01:31:39;;;;;;;10.57;4.03;;;;;;;;;;5129429;27;20147;-83
2022/12/28 01:34:06;;;;;;;7.35;3.83;;;;;;;;;;5132188;27;20819;-82
2022/12/28 01:36:34;;;;;;;10.13;4.03;;;;;;;;;;5133344;27;20935;-83
2022/12/28 01:39:04;;;;;;;10.50;3.97;;;;;;;;;;5133064;27;20504;-83
2022/12/28 01:41:35;;;;;;;11.85;3.75;;;;;;;;;;5129279;27;20051;-83
2022/12/28 01:44:02;;;;;;;7.53;3.60;;;;;;;;;;5133372;27;20105;-83
2022/12/28 01:46:36;;;;;;;11.43;4.20;;;;;;;;;;5130047;27;20074;-82
2022/12/28 01:49:11;;;;;;;7.38;3.80;;;;;;;;;;5132742;27;20170;-82
2022/12/28 01:52:01;;;;;;;10.40;4.07;;;;;;;;;;5128618;27;20136;-82
2022/12/28 01:54:33;;;;;;;8.88;3.60;;;;;;;;;;5123255;27;20486;-82
2022/12/28 01:57:00;;;;;;;12.00;4.15;;;;;;;;;;5141620;27;20142;-82
2022/12/28 01:59:30;;;;;;;8.88;3.90;;;;;;;;;;5128584;27;20441;-82
2022/12/28 02:02:03;;;;;;;12.00;4.45;;;;;;;;;;5129359;27;20062;-82
2022/12/28 02:04:31;;;;;;;10.85;4.38;;;;;;;;;;5132580;27;20048;-82
2022/12/28 02:06:58;;;;;;;10.70;4.63;;;;;;;;;;5135940;27;20170;-82
2022/12/28 02:09:46;;;;;;;11.27;4.40;;;;;;;;;;5134089;27;20067;-81
2022/12/28 02:12:33;;;;;;;11.63;4.00;;;;;;;;;;5130724;27;20192;-81
2022/12/28 02:15:02;;;;;;;9.18;4.13;;;;;;;;;;5137207;27;20036;-82
2022/12/28 02:17:30;;;;;;;12.80;4.10;;;;;;;;;;5131756;27;20054;-82
2022/12/28 02:19:57;;;;;;;7.35;4.10;;;;;;;;;;5137175;27;20056;-82
2022/12/28 02:22:27;;;;;;;7.82;4.25;;;;;;;;;;5133981;27;20082;-82
2022/12/28 02:25:03;;;;;;;8.25;4.15;;;;;;;;;;5132029;27;20061;-81
2022/12/28 02:27:52;;;;;;;9.27;4.20;;;;;;;;;;5134942;27;21948;-81
2022/12/28 02:30:21;;;;;;;10.35;4.30;;;;;;;;;;5134164;27;20074;-81
2022/12/28 02:33:07;;;;;;;9.68;4.95;;;;;;;;;;5134083;27;20887;-82
2022/12/28 02:35:48;;;;;;;17.27;5.13;;;;;;;;;;5134124;27;20055;-81
2022/12/28 02:38:22;;;;;;;11.02;5.30;;;;;;;;;;5134766;27;20097;-82
2022/12/28 02:40:53;;;;;;;8.50;4.45;;;;;;;;;;5134177;27;20048;-82
2022/12/28 02:43:23;;;;;;;12.02;5.13;;;;;;;;;;5138346;27;20046;-82
2022/12/28 02:51:45;;;;;;;15.25;5.13;;;;;;;;;;5134885;27;20047;-82
2022/12/28 02:57:37;;;;;;;10.00;5.28;;;;;;;;;;5132261;27;20055;-81
2022/12/28 03:00:21;;;;;;;11.15;4.93;;;;;;;;;;5137279;27;20093;-81
2022/12/28 03:02:48;;;;;;;;;;;;;;;;;;5137354;27;20071;-81
2022/12/28 03:08:13;;;;;;;10.25;5.18;;;;;;;;;;5130552;27;41452;-81
2022/12/28 03:08:18;;;;;;;9.40;5.38;;;;;;;;;;5132813;27;20082;-81
2022/12/28 03:10:51;;;;;;;9.23;5.38;;;;;;;;;;5133035;27;20048;-81
2022/12/28 03:13:42;;;;;;;12.52;5.35;;;;;;;;;;5133367;27;20044;-81
2022/12/28 03:16:12;;;;;;;12.68;5.57;;;;;;;;;;5135731;27;20043;-81
2022/12/28 03:32:35;;;;;;;12.40;5.97;;;;;;;;;;5127073;27;20866;-80
2022/12/28 03:35:02;;;;;;;10.93;6.25;;;;;;;;;;5133174;27;20055;-81
2022/12/28 03:37:29;;;;;;;13.05;6.20;;;;;;;;;;5131759;27;20967;-81
2022/12/28 03:40:08;;;;;;;13.98;5.82;;;;;;;;;;5130367;27;20063;-81
2022/12/28 03:45:31;;;;;;;8.85;6.18;;;;;;;;;;5131718;27;20074;-81
2022/12/28 03:48:12;;;;;;;10.50;6.22;;;;;;;;;;5130237;27;20081;-81
2022/12/28 03:50:42;;;;;;;12.63;6.40;;;;;;;;;;5126134;27;20043;-81
2022/12/28 03:53:09;;;;;;;11.88;6.10;;;;;;;;;;5128677;27;20494;-81
2022/12/28 03:55:36;;;;;;;11.55;5.82;;;;;;;;;;5132807;27;20048;-81
2022/12/28 03:58:07;;;;;;;14.88;6.60;;;;;;;;;;5130038;27;20215;-81
2022/12/28 04:00:34;;;;;;;14.05;6.97;;;;;;;;;;5129512;27;20146;-81
2022/12/28 04:03:01;;;;;;;12.13;6.43;;;;;;;;;;5134146;27;20070;-81
2022/12/28 04:05:28;;;;;;;9.88;6.70;;;;;;;;;;5133890;27;20048;-81
2022/12/28 04:07:57;;;;;;;11.68;6.60;;;;;;;;;;5135738;27;20130;-81
2022/12/28 04:10:24;;;;;;;12.13;6.72;;;;;;;;;;5134098;27;20039;-81
2022/12/28 04:13:03;;;;;;;15.23;6.60;;;;;;;;;;5134708;27;20056;-81
2022/12/28 04:15:33;;;;;;;19.05;7.47;;;;;;;;;;5134292;27;20047;-80
2022/12/28 04:18:02;;;;;;;13.95;7.30;;;;;;;;;;5133657;27;20052;-80
2022/12/28 04:20:30;;;;;;;12.68;6.80;;;;;;;;;;5132869;27;20100;-80
2022/12/28 04:22:57;;;;;;;10.35;6.72;;;;;;;;;;5133365;27;20048;-80
2022/12/28 04:25:24;;;;;;;13.70;7.38;;;;;;;;;;5133923;27;20040;-80
2022/12/28 04:27:51;;;;;;;15.48;8.05;;;;;;;;;;5132831;27;20103;-79
2022/12/28 04:30:18;;;;;;;13.02;7.30;;;;;;;;;;5134603;27;20149;-80
2022/12/28 04:32:47;;;;;;;12.52;7.20;;;;;;;;;;5135483;27;20059;-80
2022/12/28 04:35:14;;;;;;;15.15;7.40;;;;;;;;;;5134409;27;20107;-80
2022/12/28 04:37:41;;;;;;;10.70;6.78;;;;;;;;;;5133477;27;20032;-80
2022/12/28 04:40:08;;;;;;;13.45;7.35;;;;;;;;;;5138201;27;20122;-80
2022/12/28 04:42:35;;;;;;;18.05;7.70;;;;;;;;;;5136192;27;20044;-80
2022/12/28 04:45:03;;;;;;;16.25;7.43;;;;;;;;;;5131247;27;20043;-81
2022/12/28 04:47:30;;;;;;;18.08;7.75;;;;;;;;;;5135177;27;20048;-80
2022/12/28 04:49:57;;;;;;;15.98;7.68;;;;;;;;;;5134480;27;20047;-80
2022/12/28 04:52:24;;;;;;;14.13;8.32;;;;;;;;;;5137528;27;20098;-81
2022/12/28 04:54:51;;;;;;;11.80;7.78;;;;;;;;;;5133298;27;20056;-81
2022/12/28 04:57:18;;;;;;;19.23;8.45;;;;;;;;;;5133189;27;20545;-80
2022/12/28 04:59:45;;;;;;;13.55;8.38;;;;;;;;;;5133298;27;20048;-80
2022/12/28 05:02:13;;;;;;;16.48;9.07;;;;;;;;;;5135768;27;20047;-81
2022/12/28 05:04:40;;;;;;;15.85;8.38;;;;;;;;;;5132811;27;20545;-81
2022/12/28 05:07:07;;;;;;;16.20;8.32;;;;;;;;;;5136032;27;20071;-81
2022/12/28 05:09:34;;;;;;;12.27;8.07;;;;;;;;;;5135012;27;20048;-81
2022/12/28 05:12:01;;;;;;;15.65;7.78;;;;;;;;;;5131363;27;20044;-81
2022/12/28 05:14:28;;;;;;;14.48;7.43;;;;;;;;;;5133796;27;20823;-80
2022/12/28 05:17:03;;;;;;;13.52;8.32;;;;;;;;;;5133679;27;20048;-81
2022/12/28 05:19:30;;;;;;;16.88;7.63;;;;;;;;;;5131085;27;20042;-81
2022/12/28 05:21:57;;;;;;;12.18;7.72;;;;;;;;;;5134136;27;20050;-81
2022/12/28 05:24:24;;;;;;;16.10;7.82;;;;;;;;;;5134462;27;20047;-81
2022/12/28 05:26:51;;;;;;;16.30;7.75;;;;;;;;;;5132489;27;20050;-80
2022/12/28 05:29:18;;;;;;;15.32;8.25;;;;;;;;;;5133160;27;20032;-80
2022/12/28 05:31:46;;;;;;;11.73;7.63;;;;;;;;;;5129283;27;20095;-81
2022/12/28 05:34:13;;;;;;;13.77;7.68;;;;;;;;;;5130041;27;20055;-81
2022/12/28 05:36:40;;;;;;;12.98;6.50;;;;;;;;;;5131612;27;20044;-81
2022/12/28 05:39:07;;;;;;;10.68;6.60;;;;;;;;;;5134096;27;20047;-81
2022/12/28 05:41:34;;;;;;;16.42;6.40;;;;;;;;;;5133015;27;20140;-81
2022/12/28 05:44:01;;;;;;;17.38;7.03;;;;;;;;;;5133555;27;20058;-82
2022/12/28 05:46:30;;;;;;;11.88;6.28;;;;;;;;;;5132765;27;20049;-82
2022/12/28 05:48:57;;;;;;;10.02;6.32;;;;;;;;;;5129572;27;20387;-82
2022/12/28 05:51:25;;;;;;;13.27;6.45;;;;;;;;;;5128641;27;20054;-81
2022/12/28 05:53:53;;;;;;;13.55;6.78;;;;;;;;;;5131121;27;20046;-83
2022/12/28 05:56:21;;;;;;;9.38;6.13;;;;;;;;;;5127812;27;20040;-82
2022/12/28 05:58:56;;;;;;;12.88;6.60;;;;;;;;;;5128085;27;20845;-83
2022/12/28 06:01:25;;;;;;;10.10;6.07;;;;;;;;;;5126965;27;20129;-82
2022/12/28 06:03:56;;;;;;;11.85;6.30;;;;;;;;;;5130821;27;20520;-82
2022/12/28 06:06:24;;;;;;;13.02;7.05;;;;;;;;;;5125974;27;20060;-82
2022/12/28 06:08:51;;;;;;;12.70;5.57;;;;;;;;;;5124934;27;20054;-82
2022/12/28 06:11:20;;;;;;;14.02;5.93;;;;;;;;;;5131176;27;20043;-82
2022/12/28 06:13:47;;;;;;;11.55;5.63;;;;;;;;;;5124154;27;20052;-82
2022/12/28 06:16:18;;;;;;;9.18;6.00;;;;;;;;;;5128941;27;20055;-82
2022/12/28 06:19:08;;;;;;;11.95;5.80;;;;;;;;;;5060844;28;20035;-82
2022/12/28 06:21:54;;;;;;;;;;;;;;;;;;;;;
2022/12/28 06:24:43;;;;;;;16.58;5.40;;;;;;;;;;5058412;28;20053;-82
2022/12/28 06:27:10;;;;;;;10.52;5.72;;;;;;;;;;5051388;28;20060;-83
2022/12/28 06:29:37;;;;;;;8.18;5.20;;;;;;;;;;5065913;28;20052;-82
2022/12/28 06:32:04;;;;;;;11.25;5.32;;;;;;;;;;5062715;28;20521;-82
2022/12/28 06:34:31;;;;;;;12.32;5.10;;;;;;;;;;5068507;28;20045;-82
2022/12/28 06:36:59;;;;;;;7.18;4.85;;;;;;;;;;5098239;27;20047;-81
2022/12/28 06:39:26;;;;;;;7.88;4.50;;;;;;;;;;5138403;27;20052;-81
2022/12/28 06:41:53;;;;;;;12.85;5.20;;;;;;;;;;5133973;27;20039;-82
2022/12/28 06:44:20;;;;;;;9.80;4.93;;;;;;;;;;5135483;27;20074;-81
2022/12/28 06:46:47;;;;;;;6.25;4.63;;;;;;;;;;5133398;27;20079;-81
2022/12/28 06:49:14;;;;;;;6.47;4.80;;;;;;;;;;5138463;27;21391;-81
2022/12/28 06:51:42;;;;;;;10.80;4.85;;;;;;;;;;5140310;27;20052;-81
2022/12/28 06:54:09;;;;;;;12.10;4.88;;;;;;;;;;5136075;27;20507;-80
2022/12/28 06:56:37;;;;;;;10.90;5.03;;;;;;;;;;5133442;27;20052;-81
2022/12/28 06:59:04;;;;;;;9.48;4.63;;;;;;;;;;5137918;27;20058;-80
2022/12/28 07:01:33;;;;;;;8.40;4.47;;;;;;;;;;5138034;27;20047;-81
2022/12/28 07:04:02;;;;;;;8.00;4.60;;;;;;;;;;5132707;27;20047;-80
2022/12/28 07:06:29;;;;;;;8.48;4.30;;;;;;;;;;5134897;27;20040;-81
2022/12/28 07:09:01;;;;;;;17.13;4.22;;;;;;;;;;5140766;27;20040;-80
2022/12/28 07:11:33;;;;;;;9.50;4.30;;;;;;;;;;5143151;27;20073;-79
2022/12/28 07:14:01;;;;;;;8.20;3.83;;;;;;;;;;5131452;27;20040;-80
2022/12/28 07:16:29;;;;;;;8.05;3.70;;;;;;;;;;5135042;27;20105;-81
2022/12/28 07:18:58;;;;;;;9.25;3.75;;;;;;;;;;5132284;27;20202;-80
2022/12/28 07:21:30;;;;;;;6.82;3.92;;;;;;;;;;5135724;27;20039;-81
2022/12/28 07:24:03;;;;;;;5.82;3.45;;;;;;;;;;5150910;27;20070;-80
2022/12/28 07:26:32;;;;;;;7.63;3.72;;;;;;;;;;5137718;27;20056;-80
2022/12/28 07:29:01;;;;;;;4.53;2.97;;;;;;;;;;5133037;27;20075;-80
2022/12/28 07:31:29;;;;;;;5.82;3.85;;;;;;;;;;5136101;27;20047;-79
2022/12/28 07:33:57;;;;;;;8.27;4.15;;;;;;;;;;5137137;27;20394;-79
2022/12/28 07:36:25;;;;;;;7.18;3.53;;;;;;;;;;5137844;27;20070;-81
2022/12/28 07:38:53;;;;;;;7.40;4.00;;;;;;;;;;5139622;27;20032;-79
2022/12/28 07:41:21;;;;;;;6.90;3.67;;;;;;;;;;5136148;27;20045;-79
2022/12/28 07:43:49;;;;;;;7.10;3.90;;;;;;;;;;5140805;27;20638;-80
2022/12/28 07:46:21;;;;;;;11.05;4.18;;;;;;;;;;5138937;27;20040;-79
2022/12/28 07:48:48;;;;;;;10.63;4.10;;;;;;;;;;5139282;27;20036;-79
2022/12/28 07:51:17;;;;;;;12.20;3.83;;;;;;;;;;5145218;27;20736;-79
2022/12/28 07:53:45;;;;;;;7.07;3.72;;;;;;;;;;5139805;27;20129;-79
2022/12/28 07:56:13;;;;;;;7.53;3.83;;;;;;;;;;5135172;27;20036;-80
2022/12/28 07:58:40;;;;;;;7.80;3.78;;;;;;;;;;5144394;27;20040;-79
2022/12/28 08:01:08;;;;;;;6.55;3.67;;;;;;;;;;5139567;27;20039;-79
2022/12/28 08:03:35;;;;;;;7.13;3.85;;;;;;;;;;5138474;27;20063;-82
2022/12/28 08:06:04;;;;;;;4.65;3.20;;;;;;;;;;5142838;27;20050;-80
2022/12/28 08:08:33;;;;;;;5.10;3.38;;;;;;;;;;5138822;27;20070;-80
2022/12/28 08:11:07;;;;;;;10.43;3.30;;;;;;;;;;5138238;27;20086;-80
2022/12/28 08:13:36;;;;;;;5.57;3.50;;;;;;;;;;5142786;27;20052;-79
2022/12/28 08:16:03;;;;;;;6.28;3.60;;;;;;;;;;5133820;27;20068;-79
2022/12/28 08:18:34;;;;;;;4.28;3.20;;;;;;;;;;5137295;27;20096;-79
2022/12/28 08:21:11;;;;;;;7.47;3.60;;;;;;;;;;5141792;27;20126;-79
2022/12/28 08:23:39;;;;;;;7.18;3.65;;;;;;;;;;5137018;27;20059;-79
2022/12/28 08:26:10;;;;;;;5.35;3.55;;;;;;;;;;5139610;27;20171;-79
2022/12/28 08:28:38;;;;;;;6.03;3.28;;;;;;;;;;5157312;27;20039;-79
2022/12/28 08:31:06;;;;;;;7.18;4.30;;;;;;;;;;5134417;27;20131;-80
2022/12/28 08:33:34;;;;;;;10.52;4.60;;;;;;;;;;5053168;27;20108;-79
2022/12/28 08:36:04;;;;;;;5.75;4.03;;;;;;;;;;5099041;28;20045;-79
2022/12/28 08:38:36;;;;;;;7.57;4.22;;;;;;;;;;5097103;28;21330;-79
2022/12/28 08:41:04;;;;;;;9.30;4.78;;;;;;;;;;5101586;28;20550;-79
2022/12/28 08:43:34;;;;;;;6.72;4.25;;;;;;;;;;5097654;28;20060;-80
2022/12/28 08:46:06;;;;;;;8.05;4.10;;;;;;;;;;5099394;28;20041;-80
2022/12/28 08:48:34;;;;;;;6.97;3.92;;;;;;;;;;5096166;28;20037;-79
2022/12/28 08:51:02;;;;;;;6.82;4.05;;;;;;;;;;5099854;28;20048;-79
2022/12/28 08:53:29;;;;;;;8.32;4.38;;;;;;;;;;5100144;28;20672;-79
2022/12/28 08:56:02;;;;;;;8.85;3.97;;;;;;;;;;5093575;28;20092;-82
2022/12/28 08:58:33;;;;;;;5.78;3.78;;;;;;;;;;5101614;28;20135;-79
2022/12/28 09:01:06;;;;;;;6.35;4.10;;;;;;;;;;5094876;28;20041;-80
2022/12/28 09:03:33;;;;;;;;;;;;;;;;;;5092491;28;20106;-79
2022/12/28 09:06:09;;;;;;;7.15;3.95;;;;;;;;;;5092278;28;42389;-80
2022/12/28 09:08:36;;;;;;;5.63;3.53;;;;;;;;;;5099871;28;20029;-80
2022/12/28 09:11:05;;;;;;;10.18;3.90;;;;;;;;;;5098704;28;20048;-80
2022/12/28 09:13:33;;;;;;;8.75;3.97;;;;;;;;;;5098350;28;20406;-80
2022/12/28 09:16:04;;;;;;;6.05;3.60;;;;;;;;;;5093251;28;20044;-80
2022/12/28 09:18:33;;;;;;;9.90;4.35;;;;;;;;;;5094123;28;20049;-80
2022/12/28 09:21:13;;;;;;;8.93;3.97;;;;;;;;;;5097847;28;20053;-80
2022/12/28 09:23:40;;;;;;;9.35;3.70;;;;;;;;;;5096317;28;20076;-80
2022/12/28 09:26:09;;;;;;;7.65;3.45;;;;;;;;;;5099366;28;20053;-80
2022/12/28 09:28:36;;;;;;;6.72;3.83;;;;;;;;;;5097854;28;20408;-80
2022/12/28 09:31:04;;;;;;;10.25;4.65;;;;;;;;;;5102002;28;20036;-80
2022/12/28 09:36:38;;;;;;;12.77;4.43;;;;;;;;;;5099015;28;20041;-80
2022/12/28 09:39:07;;;;;;;12.85;5.10;;;;;;;;;;5100049;28;21283;-80
2022/12/28 09:41:53;;;;;;;8.20;5.03;;;;;;;;;;5100433;28;20045;-80
2022/12/28 09:44:32;;;;;;;13.05;6.00;;;;;;;;;;5094545;28;20052;-80
2022/12/28 09:47:18;;;;;;;12.88;6.60;;;;;;;;;;5097606;28;20048;-80
2022/12/28 09:49:59;;;;;;;12.65;7.07;;;;;;;;;;5096289;28;20065;-79
2022/12/28 09:52:29;;;;;;;11.38;6.60;;;;;;;;;;5097512;28;20457;-80
2022/12/28 09:55:00;;;;;;;11.38;6.90;;;;;;;;;;5093029;28;20052;-79
2022/12/28 09:57:32;;;;;;;13.48;7.35;;;;;;;;;;5098165;28;20055;-80
2022/12/28 09:59:59;;;;;;;14.80;6.25;;;;;;;;;;5093865;28;20081;-79
2022/12/28 10:02:33;;;;;;;10.10;5.80;;;;;;;;;;5094805;28;20075;-80
2022/12/28 10:05:01;;;;;;;14.68;6.55;;;;;;;;;;5105364;28;20152;-80
2022/12/28 10:07:31;;;;;;;10.02;6.28;;;;;;;;;;5100200;28;20041;-80
2022/12/28 10:09:58;;;;;;;10.68;5.65;;;;;;;;;;5098497;28;20040;-80
2022/12/28 10:12:25;;;;;;;20.27;6.28;;;;;;;;;;5092793;28;20053;-80
2022/12/28 10:14:53;;;;;;;12.82;6.13;;;;;;;;;;5092100;28;20491;-81
2022/12/28 10:17:22;;;;;;;13.30;5.40;;;;;;;;;;5112693;27;20084;-81
2022/12/28 10:19:49;;;;;;;17.60;4.97;;;;;;;;;;5095801;28;20131;-80
2022/12/28 10:22:19;;;;;;;12.15;5.15;;;;;;;;;;5089346;28;20116;-81
2022/12/28 10:24:47;;;;;;;7.97;5.45;;;;;;;;;;5092558;28;21296;-82
2022/12/28 10:27:22;;;;;;;10.82;5.30;;;;;;;;;;5099730;28;20060;-81
2022/12/28 10:29:50;;;;;;;10.55;4.75;;;;;;;;;;5088657;28;20044;-81
2022/12/28 10:32:20;;;;;;;10.35;5.50;;;;;;;;;;5100987;28;20570;-80
2022/12/28 10:34:58;;;;;;;13.75;5.22;;;;;;;;;;5099639;28;20033;-81
2022/12/28 10:37:27;;;;;;;13.30;5.03;;;;;;;;;;5100688;28;20127;-82
2022/12/28 10:40:01;;;;;;;17.25;5.30;;;;;;;;;;5095383;28;20153;-82
2022/12/28 10:42:45;;;;;;;11.82;5.43;;;;;;;;;;5095887;28;20091;-82
2022/12/28 10:45:40;;;;;;;12.85;5.30;;;;;;;;;;5108533;28;20066;-83
2022/12/28 10:48:13;;;;;;;12.48;5.18;;;;;;;;;;5100492;28;20044;-83
2022/12/28 10:50:52;;;;;;;12.10;4.72;;;;;;;;;;5099158;28;20117;-82
2022/12/28 10:53:25;;;;;;;11.30;4.65;;;;;;;;;;5096401;28;20040;-82
2022/12/28 10:56:01;;;;;;;14.57;4.72;;;;;;;;;;5111632;28;20048;-81
2022/12/28 10:58:29;;;;;;;10.55;4.40;;;;;;;;;;5103468;28;20045;-82
2022/12/28 11:01:03;;;;;;;10.43;4.38;;;;;;;;;;5092427;28;20057;-82
2022/12/28 11:03:37;;;;;;;12.25;4.63;;;;;;;;;;5101205;28;20142;-82
2022/12/28 11:06:08;;;;;;;14.43;3.90;;;;;;;;;;5094631;28;20048;-82
2022/12/28 11:09:02;;;;;;;9.02;3.50;;;;;;;;;;5098835;28;20491;-81
2022/12/28 11:11:32;;;;;;;6.80;3.55;;;;;;;;;;5096524;28;20079;-82
2022/12/28 11:14:14;;;;;;;7.30;3.42;;;;;;;;;;5105463;28;20052;-81
2022/12/28 11:16:57;;;;;;;6.80;3.70;;;;;;;;;;5099855;28;20044;-81
2022/12/28 11:19:30;;;;;;;4.70;3.20;;;;;;;;;;5113391;28;20079;-82
2022/12/28 11:25:48;;;;;;;7.70;3.13;;;;;;;;;;5083126;28;20040;-82
2022/12/28 11:28:34;;;;;;;3.42;2.80;;;;;;;;;;5089352;28;20052;-84
2022/12/28 11:31:04;;;;;;;9.52;2.95;;;;;;;;;;5108037;28;20106;-81
2022/12/28 11:33:39;;;;;;;6.40;3.13;;;;;;;;;;5100073;28;20059;-80
2022/12/28 11:36:06;;;;;;;;;;;;;;;;;;5097439;28;20055;-81
2022/12/28 11:38:46;;;;;;;6.22;2.88;;;;;;;;;;5106440;27;40506;-81
2022/12/28 11:41:22;;;;;;;6.07;2.70;;;;;;;;;;5100710;28;20052;-81
2022/12/28 11:44:00;;;;;;;4.72;2.50;;;;;;;;;;5093457;28;20039;-81
2022/12/28 11:46:31;;;;;;;6.90;2.85;;;;;;;;;;5091625;28;20114;-80
2022/12/28 11:49:03;;;;;;;5.93;3.08;;;;;;;;;;5096695;28;20072;-81
2022/12/28 11:51:33;;;;;;;7.88;3.00;;;;;;;;;;5090472;28;20067;-81
2022/12/28 11:54:08;;;;;;;5.60;3.13;;;;;;;;;;5093046;28;20049;-81
2022/12/28 11:56:45;;;;;;;5.88;2.42;;;;;;;;;;5100385;28;20046;-81
2022/12/28 11:59:29;;;;;;;6.22;2.72;;;;;;;;;;5093452;28;20049;-81
2022/12/28 12:01:58;;;;;;;11.43;2.78;;;;;;;;;;5091859;28;20041;-82
2022/12/28 12:04:28;;;;;;;8.43;3.08;;;;;;;;;;5093616;28;20068;-81
2022/12/28 12:07:01;;;;;;;4.85;2.83;;;;;;;;;;5094801;28;20086;-83
2022/12/28 12:09:38;;;;;;;5.75;2.80;;;;;;;;;;5085941;28;20113;-82
2022/12/28 12:12:15;;;;;;;11.35;3.00;;;;;;;;;;5096190;28;20060;-82
2022/12/28 12:14:48;;;;;;;9.00;3.03;;;;;;;;;;5090921;28;20056;-83
2022/12/28 12:17:20;;;;;;;4.03;2.67;;;;;;;;;;5089133;28;20053;-81
2022/12/28 12:19:50;;;;;;;8.77;2.97;;;;;;;;;;5109513;27;20845;-81
2022/12/28 12:22:21;;;;;;;8.30;2.97;;;;;;;;;;5094443;28;20044;-81
2022/12/28 12:25:04;;;;;;;9.20;3.20;;;;;;;;;;5091779;28;20056;-81
2022/12/28 12:27:38;;;;;;;7.15;3.00;;;;;;;;;;5093024;28;20283;-81
2022/12/28 12:30:19;;;;;;;5.53;2.85;;;;;;;;;;5093399;28;20095;-81
2022/12/28 12:32:52;;;;;;;7.13;2.90;;;;;;;;;;5096740;28;20098;-81
2022/12/28 12:35:22;;;;;;;;;;;;;;;;;;5100892;28;20059;-81
2022/12/28 12:37:55;;;;;;;7.55;2.75;;;;;;;;;;5092122;28;45399;-81
2022/12/28 12:40:39;;;;;;;9.30;3.27;;;;;;;;;;5097319;28;20052;-81
2022/12/28 12:43:10;;;;;;;;;;;;;;;;;;5096852;28;20052;-81
2022/12/28 12:46:02;;;;;;;6.95;2.97;;;;;;;;;;5095610;28;44058;-80
2022/12/28 12:48:48;;;;;;;7.60;3.30;;;;;;;;;;5096584;28;20105;-80
2022/12/28 12:51:32;;;;;;;9.23;2.92;;;;;;;;;;5098198;28;20104;-81
2022/12/28 12:54:21;;;;;;;8.60;3.15;;;;;;;;;;5092071;28;20071;-81
2022/12/28 12:57:12;;;;;;;7.97;3.28;;;;;;;;;;5094822;28;20037;-81
2022/12/28 12:59:59;;;;;;;9.85;3.22;;;;;;;;;;5095023;27;20044;-81
2022/12/28 13:02:39;;;;;;;10.02;3.03;;;;;;;;;;5093147;28;20056;-80
2022/12/28 13:05:24;;;;;;;8.77;3.17;;;;;;;;;;5094176;28;20247;-80
2022/12/28 13:07:55;;;;;;;10.35;3.38;;;;;;;;;;5092735;28;20724;-80
2022/12/28 13:10:25;;;;;;;11.70;3.28;;;;;;;;;;5099045;28;20056;-80
2022/12/28 13:13:00;;;;;;;12.23;3.20;;;;;;;;;;5099133;28;20112;-81
2022/12/28 13:15:33;;;;;;;10.90;3.42;;;;;;;;;;5098066;28;20055;-81
2022/12/28 13:18:22;;;;;;;8.80;3.35;;;;;;;;;;5096113;28;20037;-80
2022/12/28 13:21:19;;;;;;;16.65;3.47;;;;;;;;;;5098997;28;20084;-80
2022/12/28 13:23:51;;;;;;;10.65;3.10;;;;;;;;;;5092684;28;20100;-81
2022/12/28 13:26:33;;;;;;;11.32;3.95;;;;;;;;;;5093469;28;20727;-83
2022/12/28 13:29:09;;;;;;;9.98;3.10;;;;;;;;;;5099654;28;20093;-81
2022/12/28 13:31:57;;;;;;;11.00;3.30;;;;;;;;;;5095989;28;20056;-81
2022/12/28 13:34:39;;;;;;;8.32;2.80;;;;;;;;;;5102819;28;20057;-81
2022/12/28 13:37:23;;;;;;;14.02;3.15;;;;;;;;;;5100842;28;20056;-81
2022/12/28 13:40:09;;;;;;;10.65;2.97;;;;;;;;;;5105322;28;20068;-82
2022/12/28 13:42:55;;;;;;;8.98;3.10;;;;;;;;;;5091790;28;20047;-82
2022/12/28 13:45:32;;;;;;;10.32;2.92;;;;;;;;;;5104497;28;20052;-81
2022/12/28 13:48:22;;;;;;;8.07;2.85;;;;;;;;;;5099966;28;20071;-82
2022/12/28 13:50:54;;;;;;;22.65;3.15;;;;;;;;;;5110262;28;20048;-82
2022/12/28 13:53:25;;;;;;;14.70;3.22;;;;;;;;;;5102070;28;20104;-82
2022/12/28 13:56:04;;;;;;;9.20;3.47;;;;;;;;;;5096516;28;20079;-82
2022/12/28 13:58:35;;;;;;;12.93;4.38;;;;;;;;;;5097206;28;20084;-82
2022/12/28 14:01:11;;;;;;;15.27;3.65;;;;;;;;;;5093302;28;20041;-82
2022/12/28 14:03:39;;;;;;;12.85;3.35;;;;;;;;;;5100079;28;20056;-82
2022/12/28 14:06:16;;;;;;;14.50;3.45;;;;;;;;;;5103864;28;20063;-81
2022/12/28 14:08:44;;;;;;;9.65;3.30;;;;;;;;;;5095976;28;20163;-82
2022/12/28 14:11:12;;;;;;;12.32;2.95;;;;;;;;;;5096175;27;20049;-82
2022/12/28 14:13:39;;;;;;;9.98;3.60;;;;;;;;;;5101870;28;20040;-82
2022/12/28 14:16:10;;;;;;;15.05;4.28;;;;;;;;;;5100014;28;20552;-82
2022/12/28 14:18:40;;;;;;;9.32;3.10;;;;;;;;;;5108518;27;20041;-81
2022/12/28 14:21:20;;;;;;;13.35;3.83;;;;;;;;;;5102258;28;20029;-82
2022/12/28 14:24:14;;;;;;;10.63;2.85;;;;;;;;;;5101861;28;20049;-82
2022/12/28 14:26:59;;;;;;;9.70;2.90;;;;;;;;;;5119395;27;20587;-80
2022/12/28 14:29:35;;;;;;;14.75;3.15;;;;;;;;;;5100927;28;20041;-81
2022/12/28 14:32:12;;;;;;;9.88;2.83;;;;;;;;;;5099937;28;20045;-82
2022/12/28 14:34:40;;;;;;;;;;;;;;;;;;5111471;27;20044;-82
2022/12/28 14:37:45;;;;;;;9.45;3.17;;;;;;;;;;5100590;28;42555;-82
2022/12/28 14:40:21;;;;;;;10.30;2.83;;;;;;;;;;5099243;28;20853;-83
2022/12/28 14:42:48;;;;;;;;;;;;;;;;;;5101304;28;20113;-81
2022/12/28 14:45:35;;;;;;;7.18;2.40;;;;;;;;;;5095745;28;44714;-81
2022/12/28 14:48:28;;;;;;;11.35;2.85;;;;;;;;;;5112751;28;20041;-81
2022/12/28 14:50:57;;;;;;;12.80;2.67;;;;;;;;;;5094973;28;20056;-81
2022/12/28 14:53:28;;;;;;;7.32;2.80;;;;;;;;;;5103738;28;20067;-81
2022/12/28 14:56:13;;;;;;;8.77;2.53;;;;;;;;;;5112384;28;20988;-80
2022/12/28 14:58:47;;;;;;;12.05;2.60;;;;;;;;;;5096148;28;20040;-80
2022/12/28 15:01:20;;;;;;;8.77;2.47;;;;;;;;;;5100820;28;20084;-80
2022/12/28 15:03:52;;;;;;;14.80;3.05;;;;;;;;;;5100486;28;20085;-80
2022/12/28 15:06:20;;;;;;;11.80;2.75;;;;;;;;;;5109467;27;20052;-80
2022/12/28 15:09:15;;;;;;;;;;;;;;;;;;;;;
2022/12/28 15:11:57;;;;;;;7.78;2.63;;;;;;;;;;5096964;28;20170;-80
2022/12/28 15:14:27;;;;;;;11.27;2.90;;;;;;;;;;5097232;28;20139;-80
2022/12/28 15:16:58;;;;;;;7.55;2.60;;;;;;;;;;5098112;28;20068;-80
2022/12/28 15:19:28;;;;;;;8.75;2.90;;;;;;;;;;5093835;28;20045;-80
2022/12/28 15:21:58;;;;;;;9.90;2.53;;;;;;;;;;5097183;28;20040;-81
2022/12/28 15:24:26;;;;;;;8.27;2.55;;;;;;;;;;5108319;28;20084;-81
2022/12/28 15:27:00;;;;;;;11.93;2.85;;;;;;;;;;5093740;28;20049;-80
2022/12/28 15:29:30;;;;;;;6.65;2.30;;;;;;;;;;5098722;28;20049;-80
2022/12/28 15:32:17;;;;;;;11.60;2.78;;;;;;;;;;5096960;28;20040;-80
2022/12/28 15:34:45;;;;;;;9.07;3.03;;;;;;;;;;5109994;27;20052;-80
2022/12/28 15:37:12;;;;;;;11.50;2.50;;;;;;;;;;5107748;28;20109;-80
2022/12/28 15:39:42;;;;;;;10.35;2.30;;;;;;;;;;5102704;28;20040;-80
2022/12/28 15:42:10;;;;;;;11.75;2.42;;;;;;;;;;5099417;28;20067;-81